sensor_id;sensor_type;location;lat;lon;timestamp;P1;durP1;ratioP1;P2;durP2;ratioP2
38785;SDS011;24535;45.508;12.252;2022-11-15T00:00:09;31.35;;;27.35;;
38785;SDS011;24535;45.508;12.252;2022-11-15T00:02:35;31.73;;;25.00;;
38785;SDS011;24535;45.508;12.252;2022-11-15T00:05:10;31.10;;;25.02;;
38785;SDS011;24535;45.508;12.252;2022-11-15T00:07:35;33.20;;;26.02;;
38785;SDS011;24535;45.508;12.252;2022-11-15T00:10:39;30.75;;;24.70;;
38785;SDS011;24535;45.508;12.252;2022-11-15T00:13:06;27.55;;;22.73;;
38785;SDS011;24535;45.508;12.252;2022-11-15T00:16:13;28.65;;;21.40;;
38785;SDS011;24535;45.508;12.252;2022-11-15T00:18:50;31.33;;;26.25;;
38785;SDS011;24535;45.508;12.252;2022-11-15T00:21:36;37.70;;;30.67;;
38785;SDS011;24535;45.508;12.252;2022-11-15T00:24:04;27.67;;;22.48;;
38785;SDS011;24535;45.508;12.252;2022-11-15T00:26:30;34.78;;;27.50;;
38785;SDS011;24535;45.508;12.252;2022-11-15T00:28:56;30.27;;;24.45;;
38785;SDS011;24535;45.508;12.252;2022-11-15T00:31:22;30.80;;;25.23;;
38785;SDS011;24535;45.508;12.252;2022-11-15T00:33:56;40.47;;;31.42;;
38785;SDS011;24535;45.508;12.252;2022-11-15T00:36:23;34.60;;;28.23;;
38785;SDS011;24535;45.508;12.252;2022-11-15T00:46:36;36.95;;;31.23;;
38785;SDS011;24535;45.508;12.252;2022-11-15T00:49:09;42.92;;;32.20;;
38785;SDS011;24535;45.508;12.252;2022-11-15T00:51:34;42.47;;;31.73;;
38785;SDS011;24535;45.508;12.252;2022-11-15T00:54:06;41.30;;;32.28;;
38785;SDS011;24535;45.508;12.252;2022-11-15T00:56:32;37.67;;;31.35;;
38785;SDS011;24535;45.508;12.252;2022-11-15T00:59:00;38.95;;;32.58;;
38785;SDS011;24535;45.508;12.252;2022-11-15T01:01:29;42.33;;;33.50;;
38785;SDS011;24535;45.508;12.252;2022-11-15T01:03:57;41.23;;;32.57;;
38785;SDS011;24535;45.508;12.252;2022-11-15T01:06:23;40.30;;;32.28;;
38785;SDS011;24535;45.508;12.252;2022-11-15T01:08:54;42.10;;;33.88;;
38785;SDS011;24535;45.508;12.252;2022-11-15T01:11:23;41.97;;;32.47;;
38785;SDS011;24535;45.508;12.252;2022-11-15T01:17:15;38.63;;;31.20;;
38785;SDS011;24535;45.508;12.252;2022-11-15T01:19:42;34.83;;;28.60;;
38785;SDS011;24535;45.508;12.252;2022-11-15T01:22:08;37.97;;;29.25;;
38785;SDS011;24535;45.508;12.252;2022-11-15T01:24:36;36.38;;;29.77;;
38785;SDS011;24535;45.508;12.252;2022-11-15T01:27:02;39.83;;;30.98;;
38785;SDS011;24535;45.508;12.252;2022-11-15T01:29:28;33.92;;;28.52;;
38785;SDS011;24535;45.508;12.252;2022-11-15T01:31:53;37.40;;;28.52;;
38785;SDS011;24535;45.508;12.252;2022-11-15T01:34:19;35.97;;;28.55;;
38785;SDS011;24535;45.508;12.252;2022-11-15T01:36:51;37.03;;;30.10;;
38785;SDS011;24535;45.508;12.252;2022-11-15T01:39:19;33.33;;;28.63;;
38785;SDS011;24535;45.508;12.252;2022-11-15T01:41:44;38.17;;;29.75;;
38785;SDS011;24535;45.508;12.252;2022-11-15T01:47:30;41.20;;;32.78;;
38785;SDS011;24535;45.508;12.252;2022-11-15T01:50:11;33.03;;;27.83;;
38785;SDS011;24535;45.508;12.252;2022-11-15T01:52:55;42.50;;;30.17;;
38785;SDS011;24535;45.508;12.252;2022-11-15T01:55:22;37.28;;;29.00;;
38785;SDS011;24535;45.508;12.252;2022-11-15T01:57:51;35.83;;;31.55;;
38785;SDS011;24535;45.508;12.252;2022-11-15T02:00:20;37.05;;;29.35;;
38785;SDS011;24535;45.508;12.252;2022-11-15T02:02:52;37.95;;;31.83;;
38785;SDS011;24535;45.508;12.252;2022-11-15T02:05:18;43.88;;;34.33;;
38785;SDS011;24535;45.508;12.252;2022-11-15T02:07:44;37.17;;;31.45;;
38785;SDS011;24535;45.508;12.252;2022-11-15T02:10:11;53.90;;;36.38;;
38785;SDS011;24535;45.508;12.252;2022-11-15T02:12:38;43.25;;;35.58;;
38785;SDS011;24535;45.508;12.252;2022-11-15T02:15:13;49.58;;;36.70;;
38785;SDS011;24535;45.508;12.252;2022-11-15T02:20:52;41.88;;;32.15;;
38785;SDS011;24535;45.508;12.252;2022-11-15T02:29:21;46.47;;;35.53;;
38785;SDS011;24535;45.508;12.252;2022-11-15T02:32:33;41.67;;;34.65;;
38785;SDS011;24535;45.508;12.252;2022-11-15T02:41:00;42.95;;;33.83;;
38785;SDS011;24535;45.508;12.252;2022-11-15T02:47:00;41.17;;;33.65;;
38785;SDS011;24535;45.508;12.252;2022-11-15T02:49:51;42.67;;;31.42;;
38785;SDS011;24535;45.508;12.252;2022-11-15T02:52:24;40.40;;;33.58;;
38785;SDS011;24535;45.508;12.252;2022-11-15T02:54:54;45.92;;;36.80;;
38785;SDS011;24535;45.508;12.252;2022-11-15T02:57:42;39.13;;;31.52;;
38785;SDS011;24535;45.508;12.252;2022-11-15T03:00:25;47.67;;;36.70;;
38785;SDS011;24535;45.508;12.252;2022-11-15T03:05:46;46.97;;;39.15;;
38785;SDS011;24535;45.508;12.252;2022-11-15T03:08:34;50.50;;;39.83;;
38785;SDS011;24535;45.508;12.252;2022-11-15T03:11:18;56.90;;;42.38;;
38785;SDS011;24535;45.508;12.252;2022-11-15T03:14:00;52.65;;;39.13;;
38785;SDS011;24535;45.508;12.252;2022-11-15T03:21:44;49.90;;;40.83;;
38785;SDS011;24535;45.508;12.252;2022-11-15T03:24:12;53.95;;;42.28;;
38785;SDS011;24535;45.508;12.252;2022-11-15T03:26:41;51.28;;;40.20;;
38785;SDS011;24535;45.508;12.252;2022-11-15T03:29:22;53.78;;;40.58;;
38785;SDS011;24535;45.508;12.252;2022-11-15T03:32:01;55.55;;;41.30;;
38785;SDS011;24535;45.508;12.252;2022-11-15T03:34:41;53.17;;;39.92;;
38785;SDS011;24535;45.508;12.252;2022-11-15T03:37:13;48.10;;;39.50;;
38785;SDS011;24535;45.508;12.252;2022-11-15T03:42:46;46.47;;;35.88;;
38785;SDS011;24535;45.508;12.252;2022-11-15T03:45:26;39.33;;;31.95;;
38785;SDS011;24535;45.508;12.252;2022-11-15T03:48:20;41.42;;;33.90;;
38785;SDS011;24535;45.508;12.252;2022-11-15T03:50:55;40.63;;;32.38;;
38785;SDS011;24535;45.508;12.252;2022-11-15T03:53:37;40.28;;;34.55;;
38785;SDS011;24535;45.508;12.252;2022-11-15T03:56:03;41.47;;;35.25;;
38785;SDS011;24535;45.508;12.252;2022-11-15T03:58:29;43.00;;;36.22;;
38785;SDS011;24535;45.508;12.252;2022-11-15T04:00:54;42.15;;;34.60;;
38785;SDS011;24535;45.508;12.252;2022-11-15T04:03:20;43.30;;;37.00;;
38785;SDS011;24535;45.508;12.252;2022-11-15T04:05:47;46.13;;;36.40;;
38785;SDS011;24535;45.508;12.252;2022-11-15T04:08:44;43.78;;;34.70;;
38785;SDS011;24535;45.508;12.252;2022-11-15T04:11:09;37.88;;;33.63;;
38785;SDS011;24535;45.508;12.252;2022-11-15T04:13:34;43.80;;;34.33;;
38785;SDS011;24535;45.508;12.252;2022-11-15T04:16:00;47.17;;;37.42;;
38785;SDS011;24535;45.508;12.252;2022-11-15T04:20:57;50.05;;;40.15;;
38785;SDS011;24535;45.508;12.252;2022-11-15T04:23:41;49.78;;;38.55;;
38785;SDS011;24535;45.508;12.252;2022-11-15T04:26:32;49.80;;;40.70;;
38785;SDS011;24535;45.508;12.252;2022-11-15T04:28:58;41.70;;;34.22;;
38785;SDS011;24535;45.508;12.252;2022-11-15T04:31:44;45.22;;;35.00;;
38785;SDS011;24535;45.508;12.252;2022-11-15T04:34:10;50.30;;;39.30;;
38785;SDS011;24535;45.508;12.252;2022-11-15T04:39:50;54.88;;;42.90;;
38785;SDS011;24535;45.508;12.252;2022-11-15T04:42:16;57.67;;;42.08;;
38785;SDS011;24535;45.508;12.252;2022-11-15T04:44:43;50.55;;;40.20;;
38785;SDS011;24535;45.508;12.252;2022-11-15T04:47:08;43.90;;;34.38;;
38785;SDS011;24535;45.508;12.252;2022-11-15T04:49:34;52.75;;;39.67;;
38785;SDS011;24535;45.508;12.252;2022-11-15T04:51:59;45.53;;;38.35;;
38785;SDS011;24535;45.508;12.252;2022-11-15T04:54:25;49.63;;;38.97;;
38785;SDS011;24535;45.508;12.252;2022-11-15T04:56:50;47.53;;;36.10;;
38785;SDS011;24535;45.508;12.252;2022-11-15T04:59:20;43.20;;;34.00;;
38785;SDS011;24535;45.508;12.252;2022-11-15T05:01:49;49.80;;;40.17;;
38785;SDS011;24535;45.508;12.252;2022-11-15T05:04:14;50.88;;;37.53;;
38785;SDS011;24535;45.508;12.252;2022-11-15T05:09:15;39.03;;;30.10;;
38785;SDS011;24535;45.508;12.252;2022-11-15T05:14:57;46.55;;;36.15;;
38785;SDS011;24535;45.508;12.252;2022-11-15T05:17:23;41.10;;;33.45;;
38785;SDS011;24535;45.508;12.252;2022-11-15T05:19:48;44.25;;;36.10;;
38785;SDS011;24535;45.508;12.252;2022-11-15T05:22:14;44.50;;;37.15;;
38785;SDS011;24535;45.508;12.252;2022-11-15T05:24:42;49.78;;;37.72;;
38785;SDS011;24535;45.508;12.252;2022-11-15T05:27:25;44.97;;;37.90;;
38785;SDS011;24535;45.508;12.252;2022-11-15T05:29:54;48.15;;;38.25;;
38785;SDS011;24535;45.508;12.252;2022-11-15T05:32:27;45.90;;;37.30;;
38785;SDS011;24535;45.508;12.252;2022-11-15T05:34:54;45.92;;;37.10;;
38785;SDS011;24535;45.508;12.252;2022-11-15T05:37:57;47.65;;;37.30;;
38785;SDS011;24535;45.508;12.252;2022-11-15T05:40:28;43.97;;;35.28;;
38785;SDS011;24535;45.508;12.252;2022-11-15T05:42:56;37.13;;;29.92;;
38785;SDS011;24535;45.508;12.252;2022-11-15T05:45:26;45.83;;;35.85;;
38785;SDS011;24535;45.508;12.252;2022-11-15T05:47:54;43.15;;;34.92;;
38785;SDS011;24535;45.508;12.252;2022-11-15T05:50:26;47.63;;;35.63;;
38785;SDS011;24535;45.508;12.252;2022-11-15T05:52:52;47.15;;;38.00;;
38785;SDS011;24535;45.508;12.252;2022-11-15T05:55:25;46.63;;;37.65;;
38785;SDS011;24535;45.508;12.252;2022-11-15T05:57:58;43.70;;;34.75;;
38785;SDS011;24535;45.508;12.252;2022-11-15T06:03:10;42.63;;;35.75;;
38785;SDS011;24535;45.508;12.252;2022-11-15T06:08:36;43.20;;;35.35;;
38785;SDS011;24535;45.508;12.252;2022-11-15T07:10:36;35.45;;;29.40;;
38785;SDS011;24535;45.508;12.252;2022-11-15T07:13:02;34.45;;;26.67;;
38785;SDS011;24535;45.508;12.252;2022-11-15T07:15:27;28.40;;;24.33;;
38785;SDS011;24535;45.508;12.252;2022-11-15T07:20:42;30.65;;;25.48;;
38785;SDS011;24535;45.508;12.252;2022-11-15T07:25:39;36.90;;;26.45;;
38785;SDS011;24535;45.508;12.252;2022-11-15T07:28:10;40.97;;;27.77;;
38785;SDS011;24535;45.508;12.252;2022-11-15T07:30:36;31.73;;;26.77;;
38785;SDS011;24535;45.508;12.252;2022-11-15T07:35:39;30.33;;;24.20;;
38785;SDS011;24535;45.508;12.252;2022-11-15T07:38:04;30.02;;;24.80;;
38785;SDS011;24535;45.508;12.252;2022-11-15T07:40:30;39.45;;;24.40;;
38785;SDS011;24535;45.508;12.252;2022-11-15T07:43:02;27.42;;;23.25;;
38785;SDS011;24535;45.508;12.252;2022-11-15T07:45:30;24.65;;;21.95;;
38785;SDS011;24535;45.508;12.252;2022-11-15T07:47:55;25.70;;;21.00;;
38785;SDS011;24535;45.508;12.252;2022-11-15T07:50:23;29.65;;;24.98;;
38785;SDS011;24535;45.508;12.252;2022-11-15T07:53:07;28.15;;;21.55;;
38785;SDS011;24535;45.508;12.252;2022-11-15T07:58:11;31.73;;;21.08;;
38785;SDS011;24535;45.508;12.252;2022-11-15T08:00:37;24.58;;;18.67;;
38785;SDS011;24535;45.508;12.252;2022-11-15T08:03:04;21.55;;;18.65;;
38785;SDS011;24535;45.508;12.252;2022-11-15T08:05:31;36.17;;;24.77;;
38785;SDS011;24535;45.508;12.252;2022-11-15T08:08:03;28.33;;;21.58;;
38785;SDS011;24535;45.508;12.252;2022-11-15T08:10:29;33.30;;;21.15;;
38785;SDS011;24535;45.508;12.252;2022-11-15T08:12:58;25.42;;;20.23;;
38785;SDS011;24535;45.508;12.252;2022-11-15T08:15:26;30.77;;;23.25;;
38785;SDS011;24535;45.508;12.252;2022-11-15T08:17:55;29.75;;;23.55;;
38785;SDS011;24535;45.508;12.252;2022-11-15T08:20:25;22.15;;;19.55;;
38785;SDS011;24535;45.508;12.252;2022-11-15T08:22:58;27.33;;;21.85;;
38785;SDS011;24535;45.508;12.252;2022-11-15T08:25:26;26.60;;;21.98;;
38785;SDS011;24535;45.508;12.252;2022-11-15T08:28:05;28.08;;;23.35;;
38785;SDS011;24535;45.508;12.252;2022-11-15T08:30:35;31.05;;;23.42;;
38785;SDS011;24535;45.508;12.252;2022-11-15T08:33:10;26.17;;;20.63;;
38785;SDS011;24535;45.508;12.252;2022-11-15T08:35:46;19.73;;;17.58;;
38785;SDS011;24535;45.508;12.252;2022-11-15T08:38:12;23.60;;;19.80;;
38785;SDS011;24535;45.508;12.252;2022-11-15T08:40:37;22.00;;;18.30;;
38785;SDS011;24535;45.508;12.252;2022-11-15T08:43:09;27.30;;;17.88;;
38785;SDS011;24535;45.508;12.252;2022-11-15T08:45:35;25.00;;;18.77;;
38785;SDS011;24535;45.508;12.252;2022-11-15T08:48:03;41.17;;;23.27;;
38785;SDS011;24535;45.508;12.252;2022-11-15T09:06:50;24.20;;;21.60;;
38785;SDS011;24535;45.508;12.252;2022-11-15T09:09:38;23.83;;;20.75;;
38785;SDS011;24535;45.508;12.252;2022-11-15T09:12:05;33.13;;;23.80;;
38785;SDS011;24535;45.508;12.252;2022-11-15T09:21:02;24.13;;;21.00;;
38785;SDS011;24535;45.508;12.252;2022-11-15T09:23:27;26.00;;;21.63;;
38785;SDS011;24535;45.508;12.252;2022-11-15T09:25:57;20.67;;;17.38;;
38785;SDS011;24535;45.508;12.252;2022-11-15T09:28:55;27.08;;;21.67;;
38785;SDS011;24535;45.508;12.252;2022-11-15T09:34:33;26.20;;;22.38;;
38785;SDS011;24535;45.508;12.252;2022-11-15T09:37:03;25.88;;;23.08;;
38785;SDS011;24535;45.508;12.252;2022-11-15T09:39:28;25.20;;;20.67;;
38785;SDS011;24535;45.508;12.252;2022-11-15T09:47:51;19.23;;;17.13;;
38785;SDS011;24535;45.508;12.252;2022-11-15T09:50:42;26.30;;;22.15;;
38785;SDS011;24535;45.508;12.252;2022-11-15T09:56:42;21.88;;;19.23;;
38785;SDS011;24535;45.508;12.252;2022-11-15T10:05:25;23.02;;;17.13;;
38785;SDS011;24535;45.508;12.252;2022-11-15T10:14:08;27.48;;;21.90;;
38785;SDS011;24535;45.508;12.252;2022-11-15T10:23:07;25.80;;;20.40;;
38785;SDS011;24535;45.508;12.252;2022-11-15T10:25:41;18.90;;;15.38;;
38785;SDS011;24535;45.508;12.252;2022-11-15T10:31:25;24.50;;;21.30;;
38785;SDS011;24535;45.508;12.252;2022-11-15T10:34:25;27.58;;;22.13;;
38785;SDS011;24535;45.508;12.252;2022-11-15T10:36:56;26.60;;;23.80;;
38785;SDS011;24535;45.508;12.252;2022-11-15T10:39:23;25.98;;;23.20;;
38785;SDS011;24535;45.508;12.252;2022-11-15T10:41:50;20.52;;;18.33;;
38785;SDS011;24535;45.508;12.252;2022-11-15T10:44:26;24.33;;;21.77;;
38785;SDS011;24535;45.508;12.252;2022-11-15T10:49:23;28.90;;;25.00;;
38785;SDS011;24535;45.508;12.252;2022-11-15T10:51:57;23.05;;;20.48;;
38785;SDS011;24535;45.508;12.252;2022-11-15T10:54:37;26.65;;;21.60;;
38785;SDS011;24535;45.508;12.252;2022-11-15T10:57:17;20.85;;;18.20;;
38785;SDS011;24535;45.508;12.252;2022-11-15T10:59:49;21.27;;;17.55;;
38785;SDS011;24535;45.508;12.252;2022-11-15T11:08:03;19.73;;;17.67;;
38785;SDS011;24535;45.508;12.252;2022-11-15T11:10:55;21.88;;;19.50;;
38785;SDS011;24535;45.508;12.252;2022-11-15T11:24:58;24.83;;;22.30;;
38785;SDS011;24535;45.508;12.252;2022-11-15T11:33:27;32.00;;;25.92;;
38785;SDS011;24535;45.508;12.252;2022-11-15T11:41:47;24.08;;;20.00;;
38785;SDS011;24535;45.508;12.252;2022-11-15T11:47:36;24.33;;;20.67;;
38785;SDS011;24535;45.508;12.252;2022-11-15T11:50:42;31.08;;;25.30;;
38785;SDS011;24535;45.508;12.252;2022-11-15T11:56:14;26.45;;;22.08;;
38785;SDS011;24535;45.508;12.252;2022-11-15T12:01:38;29.42;;;24.73;;
38785;SDS011;24535;45.508;12.252;2022-11-15T12:04:32;31.95;;;25.25;;
38785;SDS011;24535;45.508;12.252;2022-11-15T12:07:20;35.72;;;29.80;;
38785;SDS011;24535;45.508;12.252;2022-11-15T12:09:55;33.70;;;27.67;;
38785;SDS011;24535;45.508;12.252;2022-11-15T12:12:49;37.38;;;29.88;;
38785;SDS011;24535;45.508;12.252;2022-11-15T12:15:40;28.55;;;23.42;;
38785;SDS011;24535;45.508;12.252;2022-11-15T12:18:10;30.63;;;22.63;;
38785;SDS011;24535;45.508;12.252;2022-11-15T12:21:04;35.38;;;28.33;;
38785;SDS011;24535;45.508;12.252;2022-11-15T12:24:01;26.98;;;21.88;;
38785;SDS011;24535;45.508;12.252;2022-11-15T12:26:33;28.38;;;23.75;;
38785;SDS011;24535;45.508;12.252;2022-11-15T12:29:20;29.30;;;23.85;;
38785;SDS011;24535;45.508;12.252;2022-11-15T12:32:25;35.25;;;29.65;;
38785;SDS011;24535;45.508;12.252;2022-11-15T12:35:05;37.28;;;30.40;;
38785;SDS011;24535;45.508;12.252;2022-11-15T12:37:49;25.38;;;21.92;;
38785;SDS011;24535;45.508;12.252;2022-11-15T14:34:49;61.35;;;45.17;;
38785;SDS011;24535;45.508;12.252;2022-11-15T14:37:21;57.13;;;41.00;;
38785;SDS011;24535;45.508;12.252;2022-11-15T14:42:59;60.00;;;42.05;;
38785;SDS011;24535;45.508;12.252;2022-11-15T14:45:28;56.22;;;41.75;;
38785;SDS011;24535;45.508;12.252;2022-11-15T14:47:54;58.28;;;42.75;;
38785;SDS011;24535;45.508;12.252;2022-11-15T14:50:29;64.18;;;45.75;;
38785;SDS011;24535;45.508;12.252;2022-11-15T14:53:03;64.75;;;47.15;;
38785;SDS011;24535;45.508;12.252;2022-11-15T14:55:48;80.22;;;55.17;;
38785;SDS011;24535;45.508;12.252;2022-11-15T15:01:30;80.43;;;57.70;;
38785;SDS011;24535;45.508;12.252;2022-11-15T15:07:29;71.97;;;50.22;;
38785;SDS011;24535;45.508;12.252;2022-11-15T15:09:54;73.00;;;51.80;;
38785;SDS011;24535;45.508;12.252;2022-11-15T15:15:17;81.00;;;56.45;;
38785;SDS011;24535;45.508;12.252;2022-11-15T15:20:44;73.30;;;53.92;;
38785;SDS011;24535;45.508;12.252;2022-11-15T15:23:22;65.72;;;49.08;;
38785;SDS011;24535;45.508;12.252;2022-11-15T15:26:20;70.78;;;52.97;;
38785;SDS011;24535;45.508;12.252;2022-11-15T15:28:47;72.10;;;52.13;;
38785;SDS011;24535;45.508;12.252;2022-11-15T15:31:21;61.60;;;48.13;;
38785;SDS011;24535;45.508;12.252;2022-11-15T15:33:46;59.40;;;44.63;;
38785;SDS011;24535;45.508;12.252;2022-11-15T15:39:33;68.72;;;50.28;;
38785;SDS011;24535;45.508;12.252;2022-11-15T15:42:15;64.20;;;45.08;;
38785;SDS011;24535;45.508;12.252;2022-11-15T15:45:20;59.53;;;45.08;;
38785;SDS011;24535;45.508;12.252;2022-11-15T15:47:48;64.57;;;50.40;;
38785;SDS011;24535;45.508;12.252;2022-11-15T15:52:53;62.28;;;47.05;;
38785;SDS011;24535;45.508;12.252;2022-11-15T15:55:28;60.25;;;45.38;;
38785;SDS011;24535;45.508;12.252;2022-11-15T15:57:55;62.95;;;48.05;;
38785;SDS011;24535;45.508;12.252;2022-11-15T16:00:21;64.95;;;48.72;;
38785;SDS011;24535;45.508;12.252;2022-11-15T16:02:52;61.50;;;46.80;;
38785;SDS011;24535;45.508;12.252;2022-11-15T16:05:22;62.92;;;48.95;;
38785;SDS011;24535;45.508;12.252;2022-11-15T16:07:49;61.75;;;45.15;;
38785;SDS011;24535;45.508;12.252;2022-11-15T16:12:55;68.15;;;51.25;;
38785;SDS011;24535;45.508;12.252;2022-11-15T16:15:24;72.70;;;52.13;;
38785;SDS011;24535;45.508;12.252;2022-11-15T16:17:52;74.03;;;52.05;;
38785;SDS011;24535;45.508;12.252;2022-11-15T16:20:39;71.45;;;52.15;;
38785;SDS011;24535;45.508;12.252;2022-11-15T16:23:42;64.93;;;49.90;;
38785;SDS011;24535;45.508;12.252;2022-11-15T16:26:27;77.97;;;53.03;;
38785;SDS011;24535;45.508;12.252;2022-11-15T16:28:58;78.88;;;54.67;;
38785;SDS011;24535;45.508;12.252;2022-11-15T16:31:23;82.17;;;53.57;;
38785;SDS011;24535;45.508;12.252;2022-11-15T16:33:49;57.60;;;42.20;;
38785;SDS011;24535;45.508;12.252;2022-11-15T16:36:19;54.40;;;45.40;;
38785;SDS011;24535;45.508;12.252;2022-11-15T16:38:47;57.72;;;44.20;;
38785;SDS011;24535;45.508;12.252;2022-11-15T16:41:15;73.03;;;54.30;;
38785;SDS011;24535;45.508;12.252;2022-11-15T16:43:43;76.20;;;56.70;;
38785;SDS011;24535;45.508;12.252;2022-11-15T16:48:54;65.60;;;48.63;;
38785;SDS011;24535;45.508;12.252;2022-11-15T16:51:20;70.18;;;52.65;;
38785;SDS011;24535;45.508;12.252;2022-11-15T16:53:46;74.57;;;52.08;;
38785;SDS011;24535;45.508;12.252;2022-11-15T16:58:54;70.15;;;52.08;;
38785;SDS011;24535;45.508;12.252;2022-11-15T17:01:27;65.20;;;48.55;;
38785;SDS011;24535;45.508;12.252;2022-11-15T17:03:59;71.75;;;52.95;;
38785;SDS011;24535;45.508;12.252;2022-11-15T17:06:37;71.38;;;54.22;;
38785;SDS011;24535;45.508;12.252;2022-11-15T17:09:19;64.07;;;50.97;;
38785;SDS011;24535;45.508;12.252;2022-11-15T17:11:49;58.88;;;46.72;;
38785;SDS011;24535;45.508;12.252;2022-11-15T17:14:15;71.60;;;51.83;;
38785;SDS011;24535;45.508;12.252;2022-11-15T17:16:42;69.57;;;52.13;;
38785;SDS011;24535;45.508;12.252;2022-11-15T17:19:10;71.95;;;53.30;;
38785;SDS011;24535;45.508;12.252;2022-11-15T17:21:46;72.40;;;52.33;;
38785;SDS011;24535;45.508;12.252;2022-11-15T17:24:15;76.38;;;55.13;;
38785;SDS011;24535;45.508;12.252;2022-11-15T17:26:59;64.30;;;48.75;;
38785;SDS011;24535;45.508;12.252;2022-11-15T17:29:40;66.22;;;48.05;;
38785;SDS011;24535;45.508;12.252;2022-11-15T17:34:41;73.55;;;53.67;;
38785;SDS011;24535;45.508;12.252;2022-11-15T17:37:09;65.72;;;48.65;;
38785;SDS011;24535;45.508;12.252;2022-11-15T17:42:26;79.25;;;59.80;;
38785;SDS011;24535;45.508;12.252;2022-11-15T17:44:54;91.90;;;66.70;;
38785;SDS011;24535;45.508;12.252;2022-11-15T17:47:23;74.00;;;58.58;;
38785;SDS011;24535;45.508;12.252;2022-11-15T17:49:56;70.55;;;55.53;;
38785;SDS011;24535;45.508;12.252;2022-11-15T17:52:22;86.22;;;64.50;;
38785;SDS011;24535;45.508;12.252;2022-11-15T17:54:52;73.03;;;53.47;;
38785;SDS011;24535;45.508;12.252;2022-11-15T17:57:46;66.47;;;48.70;;
38785;SDS011;24535;45.508;12.252;2022-11-15T18:00:15;69.40;;;50.33;;
38785;SDS011;24535;45.508;12.252;2022-11-15T18:02:46;78.00;;;55.72;;
38785;SDS011;24535;45.508;12.252;2022-11-15T18:11:03;72.07;;;53.25;;
38785;SDS011;24535;45.508;12.252;2022-11-15T20:22:21;61.22;;;45.22;;
38785;SDS011;24535;45.508;12.252;2022-11-15T20:24:46;47.47;;;38.25;;
38785;SDS011;24535;45.508;12.252;2022-11-15T20:27:12;50.70;;;39.90;;
38785;SDS011;24535;45.508;12.252;2022-11-15T20:29:43;49.30;;;40.33;;
38785;SDS011;24535;45.508;12.252;2022-11-15T20:32:09;49.20;;;38.10;;
38785;SDS011;24535;45.508;12.252;2022-11-15T20:34:35;44.50;;;33.88;;
38785;SDS011;24535;45.508;12.252;2022-11-15T20:37:00;44.83;;;34.50;;
38785;SDS011;24535;45.508;12.252;2022-11-15T20:39:26;51.78;;;40.45;;
38785;SDS011;24535;45.508;12.252;2022-11-15T20:41:51;49.83;;;33.95;;
38785;SDS011;24535;45.508;12.252;2022-11-15T20:44:20;45.97;;;36.33;;
38785;SDS011;24535;45.508;12.252;2022-11-15T20:46:45;54.70;;;42.28;;
38785;SDS011;24535;45.508;12.252;2022-11-15T20:49:16;42.83;;;34.30;;
38785;SDS011;24535;45.508;12.252;2022-11-15T20:51:44;49.58;;;39.92;;
38785;SDS011;24535;45.508;12.252;2022-11-15T20:54:09;49.30;;;39.33;;
38785;SDS011;24535;45.508;12.252;2022-11-15T20:56:35;58.92;;;44.25;;
38785;SDS011;24535;45.508;12.252;2022-11-15T20:59:35;50.05;;;38.88;;
38785;SDS011;24535;45.508;12.252;2022-11-15T21:02:01;68.63;;;52.00;;
38785;SDS011;24535;45.508;12.252;2022-11-15T21:04:29;60.10;;;46.28;;
38785;SDS011;24535;45.508;12.252;2022-11-15T21:06:54;53.95;;;42.55;;
38785;SDS011;24535;45.508;12.252;2022-11-15T21:09:22;54.97;;;43.30;;
38785;SDS011;24535;45.508;12.252;2022-11-15T21:12:11;57.72;;;42.42;;
38785;SDS011;24535;45.508;12.252;2022-11-15T21:14:38;54.97;;;42.90;;
38785;SDS011;24535;45.508;12.252;2022-11-15T21:17:05;57.67;;;45.15;;
38785;SDS011;24535;45.508;12.252;2022-11-15T21:19:30;56.28;;;41.42;;
38785;SDS011;24535;45.508;12.252;2022-11-15T21:21:56;54.15;;;43.08;;
38785;SDS011;24535;45.508;12.252;2022-11-15T21:24:24;55.35;;;43.45;;
38785;SDS011;24535;45.508;12.252;2022-11-15T21:26:50;50.75;;;40.83;;
38785;SDS011;24535;45.508;12.252;2022-11-15T21:29:16;53.35;;;39.85;;
38785;SDS011;24535;45.508;12.252;2022-11-15T21:31:47;51.50;;;40.05;;
38785;SDS011;24535;45.508;12.252;2022-11-15T21:34:13;50.90;;;40.88;;
38785;SDS011;24535;45.508;12.252;2022-11-15T21:36:39;38.22;;;32.13;;
38785;SDS011;24535;45.508;12.252;2022-11-15T21:39:08;49.53;;;38.90;;
38785;SDS011;24535;45.508;12.252;2022-11-15T21:41:33;48.63;;;38.55;;
38785;SDS011;24535;45.508;12.252;2022-11-15T21:43:59;52.13;;;38.38;;
38785;SDS011;24535;45.508;12.252;2022-11-15T21:46:26;44.58;;;34.75;;
38785;SDS011;24535;45.508;12.252;2022-11-15T21:48:53;42.03;;;34.67;;
38785;SDS011;24535;45.508;12.252;2022-11-15T21:51:19;50.95;;;38.58;;
38785;SDS011;24535;45.508;12.252;2022-11-15T21:53:45;49.38;;;36.40;;
38785;SDS011;24535;45.508;12.252;2022-11-15T21:56:11;46.10;;;35.88;;
38785;SDS011;24535;45.508;12.252;2022-11-15T21:58:42;45.03;;;36.97;;
38785;SDS011;24535;45.508;12.252;2022-11-15T22:01:09;51.92;;;40.00;;
38785;SDS011;24535;45.508;12.252;2022-11-15T22:03:53;58.65;;;42.05;;
38785;SDS011;24535;45.508;12.252;2022-11-15T22:06:19;61.13;;;45.90;;
38785;SDS011;24535;45.508;12.252;2022-11-15T22:08:48;60.90;;;44.40;;
38785;SDS011;24535;45.508;12.252;2022-11-15T22:11:13;52.65;;;42.40;;
38785;SDS011;24535;45.508;12.252;2022-11-15T22:13:39;53.75;;;45.55;;
38785;SDS011;24535;45.508;12.252;2022-11-15T22:16:04;47.28;;;38.58;;
38785;SDS011;24535;45.508;12.252;2022-11-15T22:18:30;42.15;;;36.17;;
38785;SDS011;24535;45.508;12.252;2022-11-15T22:21:00;45.53;;;37.72;;
38785;SDS011;24535;45.508;12.252;2022-11-15T22:23:28;41.33;;;34.78;;
38785;SDS011;24535;45.508;12.252;2022-11-15T22:25:54;42.05;;;35.22;;
38785;SDS011;24535;45.508;12.252;2022-11-15T22:28:20;42.17;;;32.63;;
38785;SDS011;24535;45.508;12.252;2022-11-15T22:30:46;37.30;;;31.08;;
38785;SDS011;24535;45.508;12.252;2022-11-15T22:33:13;45.70;;;34.75;;
38785;SDS011;24535;45.508;12.252;2022-11-15T22:35:40;61.92;;;39.92;;
38785;SDS011;24535;45.508;12.252;2022-11-15T22:38:06;67.88;;;42.70;;
38785;SDS011;24535;45.508;12.252;2022-11-15T22:40:33;41.42;;;30.20;;
38785;SDS011;24535;45.508;12.252;2022-11-15T22:42:58;37.22;;;30.05;;
38785;SDS011;24535;45.508;12.252;2022-11-15T22:45:24;36.58;;;29.27;;
38785;SDS011;24535;45.508;12.252;2022-11-15T22:47:50;36.47;;;26.77;;
38785;SDS011;24535;45.508;12.252;2022-11-15T22:50:15;47.22;;;35.10;;
38785;SDS011;24535;45.508;12.252;2022-11-15T22:52:41;36.10;;;29.83;;
38785;SDS011;24535;45.508;12.252;2022-11-15T22:55:06;36.65;;;29.33;;
38785;SDS011;24535;45.508;12.252;2022-11-15T22:57:35;34.50;;;28.27;;
38785;SDS011;24535;45.508;12.252;2022-11-15T23:00:04;39.60;;;30.65;;
38785;SDS011;24535;45.508;12.252;2022-11-15T23:02:33;37.63;;;30.58;;
38785;SDS011;24535;45.508;12.252;2022-11-15T23:05:03;38.00;;;28.45;;
38785;SDS011;24535;45.508;12.252;2022-11-15T23:07:29;39.30;;;28.42;;